sensor_id;sensor_type;location;lat;lon;timestamp;pressure;altitude;pressure_sealevel;temperature;humidity
3796;BME280;1913;50.660;7.834;2022-09-09T00:03:58;96662.19;;;14.66;100.00
3796;BME280;1913;50.660;7.834;2022-09-09T00:06:30;96650.88;;;14.71;100.00
3796;BME280;1913;50.660;7.834;2022-09-09T00:09:15;96647.50;;;14.75;100.00
3796;BME280;1913;50.660;7.834;2022-09-09T00:17:03;96653.53;;;14.71;100.00
3796;BME280;1913;50.660;7.834;2022-09-09T00:19:41;96649.50;;;14.68;100.00
3796;BME280;1913;50.660;7.834;2022-09-09T00:22:15;96649.50;;;14.68;100.00
3796;BME280;1913;50.660;7.834;2022-09-09T00:27:11;96643.16;;;14.86;100.00
3796;BME280;1913;50.660;7.834;2022-09-09T00:29:52;96643.41;;;14.84;100.00
3796;BME280;1913;50.660;7.834;2022-09-09T00:32:20;96649.44;;;14.80;100.00
3796;BME280;1913;50.660;7.834;2022-09-09T00:34:56;96649.34;;;14.75;100.00
3796;BME280;1913;50.660;7.834;2022-09-09T00:37:25;96644.31;;;14.73;100.00
3796;BME280;1913;50.660;7.834;2022-09-09T00:39:53;96649.34;;;14.75;100.00
3796;BME280;1913;50.660;7.834;2022-09-09T00:42:42;96645.91;;;14.74;100.00
3796;BME280;1913;50.660;7.834;2022-09-09T00:47:45;96643.19;;;14.69;100.00
3796;BME280;1913;50.660;7.834;2022-09-09T00:50:28;96646.31;;;14.66;100.00
3796;BME280;1913;50.660;7.834;2022-09-09T00:56:12;96634.28;;;14.58;100.00
3796;BME280;1913;50.660;7.834;2022-09-09T00:58:38;96649.34;;;14.58;100.00
3796;BME280;1913;50.660;7.834;2022-09-09T01:01:12;96658.00;;;14.53;100.00
3796;BME280;1913;50.660;7.834;2022-09-09T01:06:54;96655.47;;;14.47;100.00
3796;BME280;1913;50.660;7.834;2022-09-09T01:14:42;96650.13;;;14.42;100.00
3796;BME280;1913;50.660;7.834;2022-09-09T01:22:19;96656.50;;;14.29;100.00
3796;BME280;1913;50.660;7.834;2022-09-09T01:27:32;96655.88;;;14.22;100.00
3796;BME280;1913;50.660;7.834;2022-09-09T01:29:59;96650.56;;;14.22;100.00
3796;BME280;1913;50.660;7.834;2022-09-09T01:32:39;96656.66;;;14.22;100.00
3796;BME280;1913;50.660;7.834;2022-09-09T01:35:12;96645.63;;;14.25;100.00
3796;BME280;1913;50.660;7.834;2022-09-09T01:37:39;96653.22;;;14.22;100.00
3796;BME280;1913;50.660;7.834;2022-09-09T01:40:05;96650.34;;;14.23;100.00
3796;BME280;1913;50.660;7.834;2022-09-09T01:42:31;96647.47;;;14.25;100.00
3796;BME280;1913;50.660;7.834;2022-09-09T01:44:56;96647.84;;;14.33;100.00
3796;BME280;1913;50.660;7.834;2022-09-09T01:47:22;96655.31;;;14.36;100.00
3796;BME280;1913;50.660;7.834;2022-09-09T01:49:48;96658.84;;;14.42;100.00
3796;BME280;1913;50.660;7.834;2022-09-09T01:52:13;96650.13;;;14.42;100.00
3796;BME280;1913;50.660;7.834;2022-09-09T01:54:39;96660.13;;;14.40;100.00
3796;BME280;1913;50.660;7.834;2022-09-09T02:00:02;96656.69;;;14.39;100.00
3796;BME280;1913;50.660;7.834;2022-09-09T02:02:35;96664.94;;;14.43;100.00
3796;BME280;1913;50.660;7.834;2022-09-09T02:08:13;96663.78;;;14.50;100.00
3796;BME280;1913;50.660;7.834;2022-09-09T02:10:55;96663.28;;;14.53;100.00
3796;BME280;1913;50.660;7.834;2022-09-09T02:13:22;96663.03;;;14.55;100.00
3796;BME280;1913;50.660;7.834;2022-09-09T02:19:08;96653.50;;;14.54;100.00
3796;BME280;1913;50.660;7.834;2022-09-09T02:21:35;96657.75;;;14.55;100.00
3796;BME280;1913;50.660;7.834;2022-09-09T02:24:04;96665.22;;;14.58;100.00
3796;BME280;1913;50.660;7.834;2022-09-09T02:26:33;96660.16;;;14.56;100.00
3796;BME280;1913;50.660;7.834;2022-09-09T02:29:02;96663.94;;;14.60;100.00
3796;BME280;1913;50.660;7.834;2022-09-09T02:31:28;96667.16;;;14.63;100.00
3796;BME280;1913;50.660;7.834;2022-09-09T02:33:57;96662.09;;;14.61;100.00
3796;BME280;1913;50.660;7.834;2022-09-09T02:36:26;96663.38;;;14.58;100.00
3796;BME280;1913;50.660;7.834;2022-09-09T02:38:54;96661.63;;;14.64;100.00
3796;BME280;1913;50.660;7.834;2022-09-09T02:41:26;96662.41;;;14.65;100.00
3796;BME280;1913;50.660;7.834;2022-09-09T02:43:53;96653.34;;;14.60;100.00
3796;BME280;1913;50.660;7.834;2022-09-09T02:46:39;96654.00;;;14.51;100.00
3796;BME280;1913;50.660;7.834;2022-09-09T02:49:10;96651.56;;;14.49;100.00
3796;BME280;1913;50.660;7.834;2022-09-09T02:54:22;96652.53;;;14.43;100.00
3796;BME280;1913;50.660;7.834;2022-09-09T02:56:53;96651.97;;;14.41;100.00
3796;BME280;1913;50.660;7.834;2022-09-09T02:59:22;96647.56;;;14.47;100.00
3796;BME280;1913;50.660;7.834;2022-09-09T03:01:49;96656.63;;;14.51;100.00
3796;BME280;1913;50.660;7.834;2022-09-09T03:04:15;96653.19;;;14.50;100.00
3796;BME280;1913;50.660;7.834;2022-09-09T03:06:40;96649.06;;;14.43;100.00
3796;BME280;1913;50.660;7.834;2022-09-09T03:09:05;96654.00;;;14.51;100.00
3796;BME280;1913;50.660;7.834;2022-09-09T03:11:31;96651.56;;;14.49;100.00
3796;BME280;1913;50.660;7.834;2022-09-09T03:13:56;96659.91;;;14.58;100.00
3796;BME280;1913;50.660;7.834;2022-09-09T03:16:22;96651.91;;;14.53;100.00
3796;BME280;1913;50.660;7.834;2022-09-09T03:18:48;96650.72;;;14.60;100.00
3796;BME280;1913;50.660;7.834;2022-09-09T03:21:14;96652.00;;;14.58;100.00
3796;BME280;1913;50.660;7.834;2022-09-09T03:23:40;96651.28;;;14.63;100.00
3796;BME280;1913;50.660;7.834;2022-09-09T03:26:05;96640.94;;;14.61;100.00
3796;BME280;1913;50.660;7.834;2022-09-09T03:28:31;96648.66;;;14.63;100.00
3796;BME280;1913;50.660;7.834;2022-09-09T03:31:00;96643.72;;;14.54;100.00
3796;BME280;1913;50.660;7.834;2022-09-09T03:33:26;96649.34;;;14.58;100.00
3796;BME280;1913;50.660;7.834;2022-09-09T03:35:52;96652.31;;;14.61;100.00
3796;BME280;1913;50.660;7.834;2022-09-09T03:38:18;96652.56;;;14.60;100.00
3796;BME280;1913;50.660;7.834;2022-09-09T03:40:51;96660.56;;;14.65;100.00
3796;BME280;1913;50.660;7.834;2022-09-09T03:43:18;96653.78;;;14.69;100.00
3796;BME280;1913;50.660;7.834;2022-09-09T03:45:46;96661.94;;;14.68;100.00
3796;BME280;1913;50.660;7.834;2022-09-09T03:48:13;96655.38;;;14.70;100.00
3796;BME280;1913;50.660;7.834;2022-09-09T03:50:38;96647.50;;;14.75;100.00
3796;BME280;1913;50.660;7.834;2022-09-09T03:53:04;96647.59;;;14.64;100.00
3796;BME280;1913;50.660;7.834;2022-09-09T03:55:31;96654.78;;;14.68;100.00
3796;BME280;1913;50.660;7.834;2022-09-09T03:57:57;96661.03;;;14.62;100.00
3796;BME280;1913;50.660;7.834;2022-09-09T04:00:23;96652.56;;;14.60;100.00
3796;BME280;1913;50.660;7.834;2022-09-09T04:02:49;96663.13;;;14.60;100.00
3796;BME280;1913;50.660;7.834;2022-09-09T04:05:15;96656.00;;;14.60;100.00
3796;BME280;1913;50.660;7.834;2022-09-09T04:07:40;96658.50;;;14.67;100.00
3796;BME280;1913;50.660;7.834;2022-09-09T04:10:06;96659.75;;;14.65;100.00
3796;BME280;1913;50.660;7.834;2022-09-09T04:12:33;96657.13;;;14.65;100.00
3796;BME280;1913;50.660;7.834;2022-09-09T04:14:59;96662.66;;;14.63;100.00
3796;BME280;1913;50.660;7.834;2022-09-09T04:17:27;96664.72;;;14.61;100.00
3796;BME280;1913;50.660;7.834;2022-09-09T04:19:52;96658.06;;;14.58;100.00
3796;BME280;1913;50.660;7.834;2022-09-09T04:22:18;96657.75;;;14.55;100.00
3796;BME280;1913;50.660;7.834;2022-09-09T04:24:43;96660.91;;;14.52;100.00
3796;BME280;1913;50.660;7.834;2022-09-09T04:27:09;96659.19;;;14.46;100.00
3796;BME280;1913;50.660;7.834;2022-09-09T04:29:34;96658.28;;;14.40;100.00
3796;BME280;1913;50.660;7.834;2022-09-09T04:32:00;96657.97;;;14.36;100.00
3796;BME280;1913;50.660;7.834;2022-09-09T04:34:25;96657.00;;;14.43;100.00
3796;BME280;1913;50.660;7.834;2022-09-09T04:36:51;96659.72;;;14.48;100.00
3796;BME280;1913;50.660;7.834;2022-09-09T04:39:17;96659.28;;;14.51;100.00
3796;BME280;1913;50.660;7.834;2022-09-09T04:41:42;96661.34;;;14.49;100.00
3796;BME280;1913;50.660;7.834;2022-09-09T04:44:08;96659.72;;;14.48;100.00
3796;BME280;1913;50.660;7.834;2022-09-09T04:46:33;96659.72;;;14.48;100.00
3796;BME280;1913;50.660;7.834;2022-09-09T04:48:59;96656.84;;;14.49;100.00
3796;BME280;1913;50.660;7.834;2022-09-09T04:51:25;96654.78;;;14.51;100.00
3796;BME280;1913;50.660;7.834;2022-09-09T04:53:50;96666.84;;;14.59;100.00
3796;BME280;1913;50.660;7.834;2022-09-09T04:56:17;96668.16;;;14.61;100.00
3796;BME280;1913;50.660;7.834;2022-09-09T04:58:43;96661.28;;;14.60;100.00
3796;BME280;1913;50.660;7.834;2022-09-09T05:01:19;96662.19;;;14.66;100.00
3796;BME280;1913;50.660;7.834;2022-09-09T05:03:47;96667.53;;;14.71;100.00
3796;BME280;1913;50.660;7.834;2022-09-09T05:06:18;96661.53;;;14.59;100.00
3796;BME280;1913;50.660;7.834;2022-09-09T05:08:44;96670.66;;;14.51;100.00
3796;BME280;1913;50.660;7.834;2022-09-09T05:11:26;96666.06;;;14.47;100.00
3796;BME280;1913;50.660;7.834;2022-09-09T05:13:52;96672.81;;;14.54;100.00
3796;BME280;1913;50.660;7.834;2022-09-09T05:16:19;96671.47;;;14.52;100.00
3796;BME280;1913;50.660;7.834;2022-09-09T05:18:45;96671.28;;;14.58;100.00
3796;BME280;1913;50.660;7.834;2022-09-09T05:21:16;96672.13;;;14.59;100.00
3796;BME280;1913;50.660;7.834;2022-09-09T05:23:41;96667.31;;;14.56;100.00
3796;BME280;1913;50.660;7.834;2022-09-09T05:26:11;96656.72;;;14.56;100.00
3796;BME280;1913;50.660;7.834;2022-09-09T05:28:37;96667.84;;;14.58;100.00
3796;BME280;1913;50.660;7.834;2022-09-09T05:31:04;96668.44;;;14.60;100.00
3796;BME280;1913;50.660;7.834;2022-09-09T05:33:31;96668.16;;;14.61;100.00
3796;BME280;1913;50.660;7.834;2022-09-09T05:36:01;96664.03;;;14.66;100.00
3796;BME280;1913;50.660;7.834;2022-09-09T05:38:28;96668.75;;;14.64;100.00
3796;BME280;1913;50.660;7.834;2022-09-09T05:40:54;96679.91;;;14.66;100.00
3796;BME280;1913;50.660;7.834;2022-09-09T05:43:21;96678.38;;;14.70;100.00
3796;BME280;1913;50.660;7.834;2022-09-09T05:45:47;96664.41;;;14.74;100.00
3796;BME280;1913;50.660;7.834;2022-09-09T05:48:16;96675.63;;;14.81;100.00
3796;BME280;1913;50.660;7.834;2022-09-09T05:50:42;96669.22;;;14.77;100.00
3796;BME280;1913;50.660;7.834;2022-09-09T05:53:11;96668.19;;;14.78;100.00
3796;BME280;1913;50.660;7.834;2022-09-09T05:55:36;96668.28;;;14.83;100.00
3796;BME280;1913;50.660;7.834;2022-09-09T05:58:02;96672.66;;;14.95;100.00
3796;BME280;1913;50.660;7.834;2022-09-09T06:00:28;96669.63;;;15.25;100.00
3796;BME280;1913;50.660;7.834;2022-09-09T06:02:56;96665.75;;;15.54;100.00
3796;BME280;1913;50.660;7.834;2022-09-09T06:05:22;96670.97;;;15.66;100.00
3796;BME280;1913;50.660;7.834;2022-09-09T06:07:52;96664.56;;;15.62;100.00
3796;BME280;1913;50.660;7.834;2022-09-09T06:10:17;96674.09;;;15.63;100.00
3796;BME280;1913;50.660;7.834;2022-09-09T06:12:43;96670.09;;;15.83;100.00
3796;BME280;1913;50.660;7.834;2022-09-09T06:15:08;96668.81;;;15.85;100.00
3796;BME280;1913;50.660;7.834;2022-09-09T06:17:34;96662.66;;;16.07;100.00
3796;BME280;1913;50.660;7.834;2022-09-09T06:19:59;96661.53;;;15.97;100.00
3796;BME280;1913;50.660;7.834;2022-09-09T06:22:24;96664.34;;;16.13;100.00
3796;BME280;1913;50.660;7.834;2022-09-09T06:24:50;96678.19;;;16.20;100.00
3796;BME280;1913;50.660;7.834;2022-09-09T06:27:16;96671.13;;;16.03;100.00
3796;BME280;1913;50.660;7.834;2022-09-09T06:29:41;96664.50;;;16.01;100.00
3796;BME280;1913;50.660;7.834;2022-09-09T06:32:07;96662.34;;;15.98;100.00
3796;BME280;1913;50.660;7.834;2022-09-09T06:34:33;96658.06;;;15.97;100.00
3796;BME280;1913;50.660;7.834;2022-09-09T06:36:59;96662.97;;;16.10;100.00
3796;BME280;1913;50.660;7.834;2022-09-09T06:39:25;96664.16;;;16.24;100.00
3796;BME280;1913;50.660;7.834;2022-09-09T06:41:51;96660.09;;;15.90;100.00
3796;BME280;1913;50.660;7.834;2022-09-09T06:44:18;96659.38;;;15.94;100.00
3796;BME280;1913;50.660;7.834;2022-09-09T06:46:44;96664.38;;;15.91;100.00
3796;BME280;1913;50.660;7.834;2022-09-09T06:49:13;96654.91;;;16.00;100.00
3796;BME280;1913;50.660;7.834;2022-09-09T06:51:38;96649.38;;;16.01;100.00
3796;BME280;1913;50.660;7.834;2022-09-09T06:54:12;96661.31;;;16.04;100.00
3796;BME280;1913;50.660;7.834;2022-09-09T06:56:39;96671.94;;;15.82;100.00
3796;BME280;1913;50.660;7.834;2022-09-09T06:59:09;96660.44;;;15.71;100.00
3796;BME280;1913;50.660;7.834;2022-09-09T07:01:37;96665.81;;;16.03;100.00
3796;BME280;1913;50.660;7.834;2022-09-09T07:04:03;96658.34;;;16.22;100.00
3796;BME280;1913;50.660;7.834;2022-09-09T07:06:34;96659.72;;;16.62;100.00
3796;BME280;1913;50.660;7.834;2022-09-09T07:09:02;96667.41;;;16.91;100.00
3796;BME280;1913;50.660;7.834;2022-09-09T07:11:31;96663.91;;;16.85;100.00
3796;BME280;1913;50.660;7.834;2022-09-09T07:13:58;96668.75;;;16.93;100.00
3796;BME280;1913;50.660;7.834;2022-09-09T07:16:24;96678.69;;;17.13;100.00
3796;BME280;1913;50.660;7.834;2022-09-09T07:18:51;96673.88;;;17.10;100.00
3796;BME280;1913;50.660;7.834;2022-09-09T07:21:18;96675.63;;;17.37;100.00
3796;BME280;1913;50.660;7.834;2022-09-09T07:23:44;96672.53;;;17.60;100.00
3796;BME280;1913;50.660;7.834;2022-09-09T07:26:12;96678.59;;;17.40;100.00
3796;BME280;1913;50.660;7.834;2022-09-09T07:28:38;96667.38;;;17.86;100.00
3796;BME280;1913;50.660;7.834;2022-09-09T07:31:05;96672.13;;;17.79;100.00
3796;BME280;1913;50.660;7.834;2022-09-09T07:33:32;96686.78;;;17.86;100.00
3796;BME280;1913;50.660;7.834;2022-09-09T07:36:16;96682.88;;;18.14;100.00
3796;BME280;1913;50.660;7.834;2022-09-09T07:38:51;96674.56;;;17.95;100.00
3796;BME280;1913;50.660;7.834;2022-09-09T07:41:23;96687.53;;;17.77;100.00
3796;BME280;1913;50.660;7.834;2022-09-09T07:43:50;96682.66;;;17.58;100.00
3796;BME280;1913;50.660;7.834;2022-09-09T07:46:17;96702.78;;;17.49;100.00
3796;BME280;1913;50.660;7.834;2022-09-09T07:48:49;96697.34;;;17.29;100.00
3796;BME280;1913;50.660;7.834;2022-09-09T07:51:19;96688.00;;;16.79;100.00
3796;BME280;1913;50.660;7.834;2022-09-09T07:53:46;96694.88;;;16.74;100.00
3796;BME280;1913;50.660;7.834;2022-09-09T07:56:15;96703.19;;;17.26;100.00
3796;BME280;1913;50.660;7.834;2022-09-09T07:58:47;96683.59;;;17.89;100.00
3796;BME280;1913;50.660;7.834;2022-09-09T08:01:15;96690.63;;;17.58;100.00
3796;BME280;1913;50.660;7.834;2022-09-09T08:03:43;96691.31;;;17.91;100.00
3796;BME280;1913;50.660;7.834;2022-09-09T08:06:10;96710.75;;;18.02;100.00
3796;BME280;1913;50.660;7.834;2022-09-09T08:08:36;96714.81;;;18.35;100.00
3796;BME280;1913;50.660;7.834;2022-09-09T08:11:11;96704.59;;;17.91;100.00
3796;BME280;1913;50.660;7.834;2022-09-09T08:13:38;96719.41;;;17.77;100.00
3796;BME280;1913;50.660;7.834;2022-09-09T08:16:31;96714.50;;;17.53;100.00
3796;BME280;1913;50.660;7.834;2022-09-09T08:18:58;96709.88;;;16.96;100.00
3796;BME280;1913;50.660;7.834;2022-09-09T08:21:26;96720.09;;;16.77;100.00
3796;BME280;1913;50.660;7.834;2022-09-09T08:23:56;96699.53;;;16.62;100.00
3796;BME280;1913;50.660;7.834;2022-09-09T08:26:30;96701.34;;;17.31;100.00
3796;BME280;1913;50.660;7.834;2022-09-09T08:28:57;96705.94;;;17.93;100.00
3796;BME280;1913;50.660;7.834;2022-09-09T08:31:27;96711.09;;;18.46;100.00
3796;BME280;1913;50.660;7.834;2022-09-09T08:33:56;96725.53;;;18.81;100.00
3796;BME280;1913;50.660;7.834;2022-09-09T08:36:27;96718.59;;;19.16;100.00
3796;BME280;1913;50.660;7.834;2022-09-09T08:38:55;96715.63;;;19.27;100.00
3796;BME280;1913;50.660;7.834;2022-09-09T08:41:32;96715.97;;;18.90;100.00
3796;BME280;1913;50.660;7.834;2022-09-09T08:50:46;96718.03;;;18.47;100.00
3796;BME280;1913;50.660;7.834;2022-09-09T08:55:35;96717.50;;;18.71;100.00
3796;BME280;1913;50.660;7.834;2022-09-09T08:58:12;96713.53;;;18.78;100.00
3796;BME280;1913;50.660;7.834;2022-09-09T09:03:15;96727.72;;;17.90;100.00
3796;BME280;1913;50.660;7.834;2022-09-09T09:06:20;96730.22;;;18.23;100.00
3796;BME280;1913;50.660;7.834;2022-09-09T09:11:44;96725.81;;;18.95;100.00
3796;BME280;1913;50.660;7.834;2022-09-09T09:14:21;96737.16;;;19.67;100.00
3796;BME280;1913;50.660;7.834;2022-09-09T09:16:57;96723.56;;;19.68;100.00
3796;BME280;1913;50.660;7.834;2022-09-09T09:19:23;96735.13;;;18.97;100.00
3796;BME280;1913;50.660;7.834;2022-09-09T09:26:48;96740.06;;;18.27;100.00
3796;BME280;1913;50.660;7.834;2022-09-09T09:29:15;96737.03;;;17.98;100.00
3796;BME280;1913;50.660;7.834;2022-09-09T09:31:45;96749.78;;;17.96;100.00
3796;BME280;1913;50.660;7.834;2022-09-09T09:34:13;96740.59;;;17.66;100.00
3796;BME280;1913;50.660;7.834;2022-09-09T09:36:44;96742.66;;;17.54;100.00
3796;BME280;1913;50.660;7.834;2022-09-09T09:39:29;96741.81;;;17.43;100.00
3796;BME280;1913;50.660;7.834;2022-09-09T09:41:55;96741.34;;;17.57;100.00
3796;BME280;1913;50.660;7.834;2022-09-09T09:44:31;96757.31;;;17.62;100.00
3796;BME280;1913;50.660;7.834;2022-09-09T09:49:31;96743.38;;;17.87;100.00
3796;BME280;1913;50.660;7.834;2022-09-09T09:52:06;96723.59;;;18.46;100.00
3796;BME280;1913;50.660;7.834;2022-09-09T09:54:41;96728.41;;;18.43;100.00
3796;BME280;1913;50.660;7.834;2022-09-09T09:57:15;96729.75;;;18.51;100.00
3796;BME280;1913;50.660;7.834;2022-09-09T09:59:41;96728.13;;;18.45;100.00
3796;BME280;1913;50.660;7.834;2022-09-09T10:02:26;96731.78;;;18.13;100.00
3796;BME280;1913;50.660;7.834;2022-09-09T10:05:04;96731.00;;;18.28;100.00
3796;BME280;1913;50.660;7.834;2022-09-09T10:07:29;96722.84;;;19.17;100.00
3796;BME280;1913;50.660;7.834;2022-09-09T10:09:56;96722.09;;;20.06;92.97
3796;BME280;1913;50.660;7.834;2022-09-09T10:12:42;96729.28;;;20.61;83.84
3796;BME280;1913;50.660;7.834;2022-09-09T10:20:58;96724.94;;;21.33;79.87
3796;BME280;1913;50.660;7.834;2022-09-09T10:26:48;96732.88;;;21.43;75.64
3796;BME280;1913;50.660;7.834;2022-09-09T10:38:34;96718.88;;;21.22;83.23
3796;BME280;1913;50.660;7.834;2022-09-09T10:57:00;96712.69;;;21.80;74.90
3796;BME280;1913;50.660;7.834;2022-09-09T10:59:34;96716.06;;;21.67;74.00
3796;BME280;1913;50.660;7.834;2022-09-09T11:02:27;96698.97;;;21.10;79.30
3796;BME280;1913;50.660;7.834;2022-09-09T11:05:14;96698.34;;;20.54;83.97
3796;BME280;1913;50.660;7.834;2022-09-09T11:07:46;96704.16;;;20.17;90.78
3796;BME280;1913;50.660;7.834;2022-09-09T11:10:24;96698.69;;;19.88;93.91
3796;BME280;1913;50.660;7.834;2022-09-09T11:12:56;96699.84;;;19.72;96.13
3796;BME280;1913;50.660;7.834;2022-09-09T11:15:39;96696.41;;;20.21;95.71
3796;BME280;1913;50.660;7.834;2022-09-09T11:18:13;96693.09;;;20.34;90.92
3796;BME280;1913;50.660;7.834;2022-09-09T11:20:42;96691.00;;;20.31;92.53
3796;BME280;1913;50.660;7.834;2022-09-09T11:23:15;96695.78;;;20.34;90.79
3796;BME280;1913;50.660;7.834;2022-09-09T11:25:52;96698.75;;;20.27;93.49
3796;BME280;1913;50.660;7.834;2022-09-09T11:42:29;96694.94;;;18.73;100.00
3796;BME280;1913;50.660;7.834;2022-09-09T11:44:53;96691.34;;;19.49;99.41
3796;BME280;1913;50.660;7.834;2022-09-09T11:47:28;96693.31;;;20.53;91.92
3796;BME280;1913;50.660;7.834;2022-09-09T11:52:42;96686.19;;;21.36;81.28
3796;BME280;1913;50.660;7.834;2022-09-09T11:55:19;96672.56;;;21.32;76.94
3796;BME280;1913;50.660;7.834;2022-09-09T11:57:57;96687.63;;;22.38;69.31
3796;BME280;1913;50.660;7.834;2022-09-09T12:00:48;96697.06;;;22.30;69.61
3796;BME280;1913;50.660;7.834;2022-09-09T12:03:41;96704.81;;;22.13;65.45
3796;BME280;1913;50.660;7.834;2022-09-09T12:06:46;96693.34;;;22.31;63.81
3796;BME280;1913;50.660;7.834;2022-09-09T12:11:52;96690.13;;;20.85;75.45
3796;BME280;1913;50.660;7.834;2022-09-09T12:14:23;96680.13;;;20.96;76.88
3796;BME280;1913;50.660;7.834;2022-09-09T12:17:25;96691.91;;;20.61;77.63
3796;BME280;1913;50.660;7.834;2022-09-09T12:20:22;96691.00;;;20.31;81.24
3796;BME280;1913;50.660;7.834;2022-09-09T12:28:46;96700.50;;;21.45;72.57
3796;BME280;1913;50.660;7.834;2022-09-09T12:33:37;96704.78;;;21.46;72.27
3796;BME280;1913;50.660;7.834;2022-09-09T12:36:11;96691.97;;;20.50;77.13
3796;BME280;1913;50.660;7.834;2022-09-09T12:38:40;96697.66;;;20.33;81.15
3796;BME280;1913;50.660;7.834;2022-09-09T12:41:21;96698.13;;;21.14;84.39
3796;BME280;1913;50.660;7.834;2022-09-09T12:43:46;96703.78;;;20.78;94.12
3796;BME280;1913;50.660;7.834;2022-09-09T12:46:36;96698.47;;;20.73;91.12
3796;BME280;1913;50.660;7.834;2022-09-09T12:49:04;96694.81;;;21.51;86.28
3796;BME280;1913;50.660;7.834;2022-09-09T12:51:33;96697.63;;;21.65;83.43
3796;BME280;1913;50.660;7.834;2022-09-09T12:53:59;96686.47;;;22.01;86.27
3796;BME280;1913;50.660;7.834;2022-09-09T12:56:27;96682.88;;;21.44;83.00
3796;BME280;1913;50.660;7.834;2022-09-09T12:58:56;96684.59;;;21.59;81.22
3796;BME280;1913;50.660;7.834;2022-09-09T13:03:52;96665.03;;;22.25;73.86
3796;BME280;1913;50.660;7.834;2022-09-09T13:06:23;96659.78;;;22.71;74.21
3796;BME280;1913;50.660;7.834;2022-09-09T13:08:54;96665.50;;;22.65;66.30
3796;BME280;1913;50.660;7.834;2022-09-09T13:11:38;96660.41;;;22.50;64.56
3796;BME280;1913;50.660;7.834;2022-09-09T13:14:05;96655.81;;;23.15;64.61
3796;BME280;1913;50.660;7.834;2022-09-09T13:16:35;96660.44;;;23.70;56.57
3796;BME280;1913;50.660;7.834;2022-09-09T13:19:21;96654.97;;;23.89;53.29
3796;BME280;1913;50.660;7.834;2022-09-09T13:21:47;96656.34;;;23.31;51.29
3796;BME280;1913;50.660;7.834;2022-09-09T13:26:58;96653.69;;;22.52;56.16
3796;BME280;1913;50.660;7.834;2022-09-09T13:29:24;96650.78;;;23.28;54.86
3796;BME280;1913;50.660;7.834;2022-09-09T13:31:50;96656.56;;;23.49;51.29
3796;BME280;1913;50.660;7.834;2022-09-09T13:34:32;96652.56;;;23.32;53.88
3796;BME280;1913;50.660;7.834;2022-09-09T13:37:00;96655.47;;;22.89;54.30
3796;BME280;1913;50.660;7.834;2022-09-09T13:39:32;96664.81;;;22.40;55.21
3796;BME280;1913;50.660;7.834;2022-09-09T13:41:58;96631.78;;;22.31;56.43
3796;BME280;1913;50.660;7.834;2022-09-09T13:44:29;96625.59;;;22.50;57.82
3796;BME280;1913;50.660;7.834;2022-09-09T13:47:04;96634.88;;;22.71;59.17
3796;BME280;1913;50.660;7.834;2022-09-09T13:49:31;96625.84;;;23.00;54.67
3796;BME280;1913;50.660;7.834;2022-09-09T13:52:12;96622.78;;;23.06;54.90
3796;BME280;1913;50.660;7.834;2022-09-09T13:54:39;96625.53;;;23.01;55.33
3796;BME280;1913;50.660;7.834;2022-09-09T13:57:15;96631.94;;;22.54;55.25
3796;BME280;1913;50.660;7.834;2022-09-09T13:59:40;96615.56;;;21.85;61.43
3796;BME280;1913;50.660;7.834;2022-09-09T14:02:07;96623.44;;;21.52;66.83
3796;BME280;1913;50.660;7.834;2022-09-09T14:04:32;96629.47;;;21.63;71.69
3796;BME280;1913;50.660;7.834;2022-09-09T14:07:00;96631.00;;;21.45;65.45
3796;BME280;1913;50.660;7.834;2022-09-09T14:09:26;96630.16;;;21.25;68.57
3796;BME280;1913;50.660;7.834;2022-09-09T14:11:51;96630.66;;;21.03;71.36
3796;BME280;1913;50.660;7.834;2022-09-09T14:14:17;96628.16;;;20.54;70.22
3796;BME280;1913;50.660;7.834;2022-09-09T14:16:42;96619.63;;;20.52;73.01
3796;BME280;1913;50.660;7.834;2022-09-09T14:19:08;96618.31;;;20.44;72.42
3796;BME280;1913;50.660;7.834;2022-09-09T14:21:34;96621.34;;;20.32;74.73
3796;BME280;1913;50.660;7.834;2022-09-09T14:24:00;96608.94;;;20.18;75.39
3796;BME280;1913;50.660;7.834;2022-09-09T14:26:25;96618.94;;;20.31;73.22
3796;BME280;1913;50.660;7.834;2022-09-09T14:28:51;96617.91;;;20.32;76.72
3796;BME280;1913;50.660;7.834;2022-09-09T14:31:17;96622.75;;;20.25;78.33
3796;BME280;1913;50.660;7.834;2022-09-09T14:33:43;96624.69;;;20.14;81.78
3796;BME280;1913;50.660;7.834;2022-09-09T14:36:09;96627.25;;;19.85;81.28
3796;BME280;1913;50.660;7.834;2022-09-09T14:38:37;96624.50;;;19.41;84.11
3796;BME280;1913;50.660;7.834;2022-09-09T14:41:05;96628.72;;;19.52;85.84
3796;BME280;1913;50.660;7.834;2022-09-09T14:43:31;96624.06;;;19.13;90.66
3796;BME280;1913;50.660;7.834;2022-09-09T14:46:04;96618.97;;;19.17;100.00
3796;BME280;1913;50.660;7.834;2022-09-09T14:48:31;96628.34;;;18.99;100.00
3796;BME280;1913;50.660;7.834;2022-09-09T14:50:56;96643.53;;;18.52;100.00
3796;BME280;1913;50.660;7.834;2022-09-09T14:53:21;96641.38;;;18.24;100.00
3796;BME280;1913;50.660;7.834;2022-09-09T14:55:47;96657.28;;;17.93;100.00
3796;BME280;1913;50.660;7.834;2022-09-09T14:58:13;96665.69;;;17.12;100.00
3796;BME280;1913;50.660;7.834;2022-09-09T15:00:39;96681.84;;;16.41;100.00
3796;BME280;1913;50.660;7.834;2022-09-09T15:03:04;96682.13;;;15.90;100.00
3796;BME280;1913;50.660;7.834;2022-09-09T15:05:29;96669.25;;;15.55;100.00
3796;BME280;1913;50.660;7.834;2022-09-09T15:07:57;96690.75;;;15.20;100.00
3796;BME280;1913;50.660;7.834;2022-09-09T15:10:24;96679.38;;;15.02;100.00
3796;BME280;1913;50.660;7.834;2022-09-09T15:12:51;96678.09;;;15.05;100.00
3796;BME280;1913;50.660;7.834;2022-09-09T15:15:16;96688.22;;;14.91;100.00
3796;BME280;1913;50.660;7.834;2022-09-09T15:17:42;96699.75;;;14.85;100.00
3796;BME280;1913;50.660;7.834;2022-09-09T15:20:08;96695.69;;;14.94;100.00
3796;BME280;1913;50.660;7.834;2022-09-09T15:22:33;96703.34;;;14.96;100.00
3796;BME280;1913;50.660;7.834;2022-09-09T15:24:59;96704.88;;;15.08;100.00
3796;BME280;1913;50.660;7.834;2022-09-09T15:27:24;96699.59;;;15.08;100.00
3796;BME280;1913;50.660;7.834;2022-09-09T15:29:50;96708.50;;;15.02;100.00
3796;BME280;1913;50.660;7.834;2022-09-09T15:32:17;96699.66;;;14.97;100.00
3796;BME280;1913;50.660;7.834;2022-09-09T15:34:42;96704.88;;;14.92;100.00
3796;BME280;1913;50.660;7.834;2022-09-09T15:37:16;96703.13;;;14.80;100.00
3796;BME280;1913;50.660;7.834;2022-09-09T15:39:45;96709.63;;;14.73;100.00